createdAt,value
2023-05-20T00:01:31.848Z,12.32
2023-05-20T00:04:01.438Z,12.28
2023-05-20T00:06:29.627Z,12.21
2023-05-20T00:08:59.832Z,12.07
2023-05-20T00:11:27.954Z,12.13
2023-05-20T00:13:55.930Z,11.91
2023-05-20T00:16:23.951Z,11.89
2023-05-20T00:18:51.944Z,12.10
2023-05-20T00:21:21.324Z,11.88
2023-05-20T00:23:49.282Z,11.93
2023-05-20T00:26:17.616Z,11.87
2023-05-20T00:28:45.672Z,11.86
2023-05-20T00:31:13.812Z,11.93
2023-05-20T00:33:42.098Z,11.93
2023-05-20T00:36:10.246Z,11.82
2023-05-20T00:38:39.589Z,11.86
2023-05-20T00:41:07.598Z,11.68
2023-05-20T00:43:35.521Z,11.87
2023-05-20T00:46:03.688Z,11.83
2023-05-20T00:48:40.920Z,11.93
2023-05-20T00:51:09.149Z,11.96
2023-05-20T00:53:37.958Z,11.89
2023-05-20T00:56:09.366Z,11.90
2023-05-20T00:58:38.376Z,11.83
2023-05-20T01:01:06.687Z,11.72
2023-05-20T01:03:35.419Z,11.60
2023-05-20T01:06:03.792Z,11.76
2023-05-20T01:08:32.400Z,11.67
2023-05-20T01:11:05.860Z,11.59
2023-05-20T01:13:40.361Z,11.61
2023-05-20T01:16:11.210Z,11.59
2023-05-20T01:18:41.148Z,11.55
2023-05-20T01:21:11.777Z,11.29
2023-05-20T01:23:42.430Z,11.44
2023-05-20T01:26:13.882Z,11.50
2023-05-20T01:28:44.661Z,11.49
2023-05-20T01:31:17.818Z,11.67
2023-05-20T01:33:47.683Z,11.64
2023-05-20T01:36:16.175Z,11.49
2023-05-20T01:38:45.957Z,11.47
2023-05-20T01:41:14.514Z,11.30
2023-05-20T01:43:43.808Z,11.40
2023-05-20T01:46:12.009Z,11.37
2023-05-20T01:48:40.291Z,11.19
2023-05-20T01:51:08.313Z,11.31
2023-05-20T01:53:36.328Z,11.33
2023-05-20T01:56:06.992Z,11.25
2023-05-20T01:58:35.087Z,11.25
2023-05-20T02:01:03.889Z,11.16
2023-05-20T02:03:31.925Z,11.25
2023-05-20T02:06:00.044Z,11.13
2023-05-20T02:08:28.278Z,11.23
2023-05-20T02:10:56.267Z,11.15
2023-05-20T02:13:25.557Z,10.97
2023-05-20T02:15:53.644Z,11.10
2023-05-20T02:18:21.650Z,11.11
2023-05-20T02:20:49.672Z,11.03
2023-05-20T02:23:17.689Z,11.12
2023-05-20T02:25:46.536Z,11.10
2023-05-20T02:28:16.013Z,11.20
2023-05-20T02:30:45.423Z,11.23
2023-05-20T02:33:14.008Z,11.37
2023-05-20T02:35:42.094Z,11.39
2023-05-20T02:38:10.340Z,11.18
2023-05-20T02:40:38.507Z,11.18
2023-05-20T02:43:06.522Z,11.00
2023-05-20T02:45:34.704Z,11.06
2023-05-20T02:48:04.351Z,10.99
2023-05-20T02:50:32.406Z,10.89
2023-05-20T02:53:00.558Z,10.87
2023-05-20T02:55:29.931Z,10.86
2023-05-20T02:57:57.995Z,10.99
2023-05-20T03:00:28.765Z,10.96
2023-05-20T03:02:56.749Z,10.89
2023-05-20T03:05:27.562Z,10.88
2023-05-20T03:07:55.636Z,10.85
2023-05-20T03:10:23.872Z,10.77
2023-05-20T03:12:51.844Z,11.03
2023-05-20T03:15:19.901Z,11.03
2023-05-20T03:17:47.855Z,10.92
2023-05-20T03:20:16.791Z,10.83
2023-05-20T03:22:46.166Z,10.92
2023-05-20T03:25:14.106Z,10.75
2023-05-20T03:27:43.075Z,10.78
2023-05-20T03:30:11.574Z,10.74
2023-05-20T03:32:39.620Z,10.90
2023-05-20T03:35:08.960Z,10.95
2023-05-20T03:37:37.449Z,11.00
2023-05-20T03:40:10.307Z,10.94
2023-05-20T03:42:38.687Z,11.03
2023-05-20T03:45:07.953Z,11.18
2023-05-20T03:47:36.076Z,11.16
2023-05-20T03:50:04.164Z,11.29
2023-05-20T03:52:32.162Z,11.27
2023-05-20T03:55:00.238Z,11.23
2023-05-20T03:57:29.616Z,11.27
2023-05-20T03:59:57.802Z,11.32
2023-05-20T04:02:25.960Z,11.28
2023-05-20T04:04:54.057Z,11.42
2023-05-20T04:07:21.973Z,11.34
2023-05-20T04:09:50.316Z,11.47
2023-05-20T04:12:19.531Z,11.44
2023-05-20T04:14:50.183Z,11.39
2023-05-20T04:17:18.186Z,11.52
2023-05-20T04:19:46.279Z,11.50
2023-05-20T04:22:14.332Z,11.76
2023-05-20T04:24:42.447Z,11.71
2023-05-20T04:27:11.214Z,11.86
2023-05-20T04:29:41.621Z,11.94
2023-05-20T04:32:11.659Z,11.85
2023-05-20T04:34:39.657Z,12.10
2023-05-20T04:37:07.992Z,12.17
2023-05-20T04:39:36.398Z,12.08
2023-05-20T04:42:04.909Z,12.02
2023-05-20T04:44:33.112Z,12.20
2023-05-20T04:47:01.201Z,12.30
2023-05-20T04:49:30.629Z,12.34
2023-05-20T04:51:58.719Z,12.36
2023-05-20T04:54:26.857Z,12.38
2023-05-20T04:56:54.907Z,12.53
2023-05-20T04:59:22.941Z,12.58
2023-05-20T05:01:51.146Z,12.64
2023-05-20T05:04:19.556Z,12.72
2023-05-20T05:06:50.546Z,12.81
2023-05-20T05:09:18.656Z,12.98
2023-05-20T05:11:46.722Z,13.06
2023-05-20T05:14:14.811Z,13.19
2023-05-20T05:16:42.839Z,13.15
2023-05-20T05:19:14.731Z,13.15
2023-05-20T05:21:43.546Z,13.23
2023-05-20T05:24:13.050Z,13.21
2023-05-20T05:26:41.471Z,13.45
2023-05-20T05:29:11.606Z,13.21
2023-05-20T05:31:39.921Z,13.47
2023-05-20T05:34:07.936Z,13.70
2023-05-20T05:36:35.973Z,13.82
2023-05-20T05:39:04.503Z,13.78
2023-05-20T05:41:33.906Z,14.05
2023-05-20T05:44:02.046Z,14.22
2023-05-20T05:46:30.185Z,14.30
2023-05-20T05:48:59.042Z,14.40
2023-05-20T05:51:29.214Z,14.58
2023-05-20T05:53:57.296Z,14.53
2023-05-20T05:56:25.549Z,14.60
2023-05-20T05:58:55.020Z,14.70
2023-05-20T06:01:45.623Z,14.65
2023-05-20T06:04:13.730Z,14.65
2023-05-20T06:06:42.085Z,14.61
2023-05-20T06:09:10.154Z,14.80
2023-05-20T06:11:38.259Z,14.97
2023-05-20T06:14:07.632Z,15.08
2023-05-20T06:16:35.717Z,15.18
2023-05-20T06:19:05.533Z,15.27
2023-05-20T06:21:33.699Z,15.26
2023-05-20T06:24:01.796Z,15.52
2023-05-20T06:26:29.846Z,15.42
2023-05-20T06:28:58.097Z,15.77
2023-05-20T06:31:27.779Z,15.88
2023-05-20T06:33:56.015Z,15.86
2023-05-20T06:36:24.097Z,15.98
2023-05-20T06:38:52.033Z,16.12
2023-05-20T06:41:20.297Z,16.28
2023-05-20T06:43:48.863Z,16.48
2023-05-20T06:46:18.250Z,16.66
2023-05-20T06:48:47.686Z,16.69
2023-05-20T06:51:16.069Z,16.81
2023-05-20T06:53:44.100Z,16.95
2023-05-20T06:56:12.313Z,17.11
2023-05-20T06:58:40.554Z,17.11
2023-05-20T07:01:08.743Z,17.33
2023-05-20T07:03:36.851Z,17.24
2023-05-20T07:06:07.262Z,17.42
2023-05-20T07:08:37.017Z,17.27
2023-05-20T07:11:05.055Z,17.55
2023-05-20T07:13:33.083Z,17.55
2023-05-20T07:16:01.200Z,17.65
2023-05-20T07:18:29.606Z,17.79
2023-05-20T07:20:58.089Z,17.85
2023-05-20T07:23:27.551Z,17.99
2023-05-20T07:25:55.622Z,17.97
2023-05-20T07:28:23.793Z,18.02
2023-05-20T07:30:55.389Z,18.17
2023-05-20T07:33:24.315Z,18.32
2023-05-20T07:35:54.632Z,18.40
2023-05-20T07:38:22.680Z,18.46
2023-05-20T07:40:51.992Z,18.49
2023-05-20T07:43:19.983Z,18.60
2023-05-20T07:45:47.973Z,18.58
2023-05-20T07:48:16.076Z,18.73
2023-05-20T07:50:44.154Z,18.83
2023-05-20T07:53:12.155Z,18.92
2023-05-20T07:55:40.236Z,19.07
2023-05-20T07:58:10.060Z,19.20
2023-05-20T08:00:37.957Z,19.31
2023-05-20T08:03:07.925Z,19.31
2023-05-20T08:05:38.084Z,19.33
2023-05-20T08:08:06.770Z,19.16
2023-05-20T08:10:34.744Z,19.19
2023-05-20T08:13:02.712Z,19.14
2023-05-20T08:15:32.096Z,19.22
2023-05-20T08:18:00.325Z,19.23
2023-05-20T08:20:28.788Z,19.20
2023-05-20T08:22:56.715Z,19.35
2023-05-20T08:25:24.811Z,19.41
2023-05-20T08:27:52.974Z,19.46
2023-05-20T08:30:21.295Z,19.56
2023-05-20T08:32:50.760Z,19.83
2023-05-20T08:35:18.899Z,19.75
2023-05-20T08:37:47.061Z,19.76
2023-05-20T08:40:15.797Z,19.60
2023-05-20T08:42:44.531Z,19.60
2023-05-20T08:45:13.698Z,19.82
2023-05-20T08:47:44.761Z,19.91
2023-05-20T08:50:15.670Z,20.03
2023-05-20T08:52:45.648Z,20.00
2023-05-20T08:55:16.816Z,19.88
2023-05-20T08:57:47.325Z,19.95
2023-05-20T09:00:17.218Z,20.19
2023-05-20T09:02:48.112Z,20.31
2023-05-20T09:05:18.283Z,20.57
2023-05-20T09:07:46.744Z,20.68
2023-05-20T09:10:14.981Z,20.73
2023-05-20T09:12:42.944Z,20.49
2023-05-20T09:15:11.153Z,20.70
2023-05-20T09:17:39.869Z,20.64
2023-05-20T09:20:09.927Z,20.81
2023-05-20T09:22:40.761Z,20.93
2023-05-20T09:25:11.507Z,21.14
2023-05-20T09:27:39.435Z,21.04
2023-05-20T09:30:08.750Z,21.30
2023-05-20T09:32:36.745Z,21.44
2023-05-20T09:35:06.297Z,21.54
2023-05-20T09:37:36.045Z,21.58
2023-05-20T09:40:09.307Z,21.71
2023-05-20T09:42:43.505Z,21.92
2023-05-20T09:45:11.889Z,21.91
2023-05-20T09:47:41.291Z,21.74
2023-05-20T09:50:10.671Z,21.58
2023-05-20T09:52:40.104Z,21.53
2023-05-20T09:55:11.477Z,21.75
2023-05-20T09:57:39.554Z,21.82
2023-05-20T10:00:09.121Z,21.88
2023-05-20T10:02:37.787Z,22.14
2023-05-20T10:05:10.952Z,22.33
2023-05-20T10:08:32.898Z,22.34
2023-05-20T10:11:12.871Z,22.07
2023-05-20T10:13:54.349Z,21.73
2023-05-20T10:16:30.797Z,21.68
2023-05-20T10:19:07.275Z,21.70
2023-05-20T10:21:35.391Z,21.84
2023-05-20T10:24:09.695Z,22.23
2023-05-20T10:26:40.045Z,22.38
2023-05-20T10:29:17.897Z,22.58
2023-05-20T10:31:46.757Z,22.63
2023-05-20T10:34:17.450Z,22.79
2023-05-20T10:36:49.318Z,23.01
2023-05-20T10:39:18.103Z,23.21
2023-05-20T10:41:47.359Z,23.43
2023-05-20T10:44:15.308Z,23.66
2023-05-20T10:49:22.454Z,23.55
2023-05-20T10:51:52.579Z,23.90
2023-05-20T10:54:21.168Z,24.19
2023-05-20T10:56:55.054Z,24.67
2023-05-20T10:59:23.046Z,25.03
2023-05-20T11:01:51.661Z,25.59
2023-05-20T11:04:20.833Z,25.90
2023-05-20T11:06:54.216Z,26.19
2023-05-20T11:09:22.474Z,26.06
2023-05-20T11:11:51.589Z,25.98
2023-05-20T11:14:20.913Z,25.43
2023-05-20T11:16:53.187Z,24.88
2023-05-20T11:19:21.561Z,24.43
2023-05-20T11:21:49.859Z,24.71
2023-05-20T11:24:25.785Z,24.87
2023-05-20T11:26:53.894Z,24.96
2023-05-20T11:29:23.296Z,24.89
2023-05-20T11:31:52.264Z,24.52
2023-05-20T11:34:24.136Z,24.77
2023-05-20T11:36:57.934Z,24.66
2023-05-20T11:39:26.967Z,24.30
2023-05-20T11:41:55.018Z,23.86
2023-05-20T11:44:24.382Z,24.16
2023-05-20T11:46:52.310Z,24.35
2023-05-20T11:49:20.312Z,24.38
2023-05-20T11:51:48.246Z,24.07
2023-05-20T11:54:16.411Z,24.13
2023-05-20T11:56:45.587Z,23.86
2023-05-20T11:59:14.812Z,24.21
2023-05-20T12:01:44.508Z,24.80
2023-05-20T12:04:13.367Z,25.26
2023-05-20T12:06:42.975Z,25.92
2023-05-20T12:09:12.078Z,26.63
2023-05-20T12:11:42.073Z,26.89
2023-05-20T12:14:10.651Z,26.54
2023-05-20T12:16:39.679Z,26.38
2023-05-20T12:19:09.444Z,25.93
2023-05-20T12:21:37.505Z,24.92
2023-05-20T12:24:07.140Z,24.01
2023-05-20T12:26:36.069Z,23.36
2023-05-20T12:29:04.020Z,22.88
2023-05-20T12:31:34.662Z,22.78
2023-05-20T12:34:03.143Z,22.47
2023-05-20T12:36:33.868Z,22.16
2023-05-20T12:39:01.912Z,21.74
2023-05-20T12:41:29.831Z,21.14
2023-05-20T12:43:58.154Z,20.92
2023-05-20T12:46:26.171Z,20.77
2023-05-20T12:48:54.187Z,20.58
2023-05-20T12:51:22.096Z,20.55
2023-05-20T12:53:51.528Z,20.65
2023-05-20T12:56:20.065Z,20.83
2023-05-20T12:58:48.183Z,21.41
2023-05-20T13:01:16.223Z,21.99
2023-05-20T13:03:44.299Z,23.12
2023-05-20T13:06:12.262Z,23.99
2023-05-20T13:08:40.195Z,24.38
2023-05-20T13:11:09.449Z,24.61
2023-05-20T13:13:37.494Z,25.16
2023-05-20T13:16:06.005Z,25.61
2023-05-20T13:18:33.923Z,26.36
2023-05-20T13:21:01.860Z,26.69
2023-05-20T13:23:29.745Z,26.84
2023-05-20T13:25:57.658Z,27.06
2023-05-20T13:28:27.469Z,26.83
2023-05-20T13:30:55.586Z,26.93
2023-05-20T13:33:24.311Z,27.32
2023-05-20T13:35:52.290Z,27.21
2023-05-20T13:38:20.193Z,27.10
2023-05-20T13:40:49.015Z,26.94
2023-05-20T13:43:17.071Z,26.69
2023-05-20T13:45:46.493Z,26.40
2023-05-20T13:48:14.485Z,26.47
2023-05-20T13:50:42.447Z,26.48
2023-05-20T13:53:12.565Z,26.74
2023-05-20T13:55:40.609Z,26.69
2023-05-20T13:58:09.156Z,26.00
2023-05-20T14:00:37.714Z,25.81
2023-05-20T14:03:09.196Z,25.90
2023-05-20T14:05:37.517Z,25.61
2023-05-20T14:08:05.911Z,25.83
2023-05-20T14:10:33.966Z,25.92
2023-05-20T14:13:02.372Z,25.93
2023-05-20T14:15:30.734Z,25.92
2023-05-20T14:17:59.020Z,25.48
2023-05-20T14:20:28.348Z,25.51
2023-05-20T14:22:56.297Z,25.52
2023-05-20T14:25:24.199Z,24.84
2023-05-20T14:27:54.968Z,24.16
2023-05-20T14:30:22.966Z,23.63
2023-05-20T14:32:51.022Z,23.08
2023-05-20T14:35:19.343Z,23.45
2023-05-20T14:37:48.859Z,23.32
2023-05-20T14:40:16.811Z,23.25
2023-05-20T14:42:45.070Z,22.80
2023-05-20T14:45:13.063Z,22.67
2023-05-20T14:47:41.083Z,22.62
2023-05-20T14:50:09.730Z,22.30
2023-05-20T14:52:37.754Z,22.00
2023-05-20T14:55:08.280Z,21.76
2023-05-20T14:57:36.214Z,21.75
2023-05-20T15:00:04.743Z,21.45
2023-05-20T15:02:33.104Z,21.62
2023-05-20T15:05:01.241Z,21.54
2023-05-20T15:07:29.141Z,21.36
2023-05-20T15:09:57.185Z,21.25
2023-05-20T15:12:26.545Z,21.18
2023-05-20T15:14:54.609Z,20.90
2023-05-20T15:17:22.611Z,20.89
2023-05-20T15:19:50.621Z,20.80
2023-05-20T15:22:18.584Z,20.85
2023-05-20T15:24:46.601Z,20.66
2023-05-20T15:27:14.597Z,20.53
2023-05-20T15:29:44.067Z,20.77
2023-05-20T15:32:12.179Z,21.48
2023-05-20T15:34:40.472Z,22.18
2023-05-20T15:37:08.487Z,22.72
2023-05-20T15:39:38.578Z,23.25
2023-05-20T15:42:06.792Z,23.75
2023-05-20T15:44:36.181Z,23.80
2023-05-20T15:47:06.266Z,23.80
2023-05-20T15:49:34.321Z,23.69
2023-05-20T15:52:04.030Z,23.51
2023-05-20T15:54:32.865Z,23.01
2023-05-20T15:57:01.200Z,23.04
2023-05-20T15:59:29.291Z,22.61
2023-05-20T16:01:57.443Z,22.03
2023-05-20T16:04:27.414Z,21.60
2023-05-20T16:06:55.606Z,21.39
2023-05-20T16:09:23.729Z,21.42
2023-05-20T16:11:51.862Z,21.98
2023-05-20T16:14:19.832Z,22.40
2023-05-20T16:16:47.839Z,22.81
2023-05-20T16:19:16.624Z,23.00
2023-05-20T16:21:46.156Z,23.26
2023-05-20T16:24:14.235Z,23.59
2023-05-20T16:26:42.240Z,23.88
2023-05-20T16:29:10.165Z,23.99
2023-05-20T16:31:38.261Z,24.16
2023-05-20T16:34:06.663Z,23.83
2023-05-20T16:36:34.587Z,24.04
2023-05-20T16:39:03.968Z,23.96
2023-05-20T16:41:32.016Z,24.02
2023-05-20T16:44:00.028Z,23.82
2023-05-20T16:46:27.993Z,22.95
2023-05-20T16:48:56.224Z,23.11
2023-05-20T16:51:24.196Z,22.85
2023-05-20T16:53:52.186Z,22.39
2023-05-20T16:56:22.223Z,22.32
2023-05-20T16:58:52.820Z,22.15
2023-05-20T17:01:21.346Z,22.30
2023-05-20T17:03:49.824Z,22.05
2023-05-20T17:06:18.133Z,21.44
2023-05-20T17:08:46.150Z,21.04
2023-05-20T17:11:14.262Z,20.95
2023-05-20T17:13:43.570Z,20.79
2023-05-20T17:16:12.207Z,20.51
2023-05-20T17:18:40.326Z,20.15
2023-05-20T17:21:08.296Z,19.79
2023-05-20T17:23:36.641Z,19.59
2023-05-20T17:26:05.006Z,19.49
2023-05-20T17:28:33.182Z,19.13
2023-05-20T17:31:02.622Z,19.23
2023-05-20T17:33:30.678Z,19.25
2023-05-20T17:35:58.844Z,19.25
2023-05-20T17:38:27.109Z,18.98
2023-05-20T17:40:56.134Z,18.91
2023-05-20T17:43:27.349Z,18.72
2023-05-20T17:45:55.420Z,18.67
2023-05-20T17:48:24.833Z,18.53
2023-05-20T17:50:52.801Z,18.56
2023-05-20T17:53:21.979Z,18.56
2023-05-20T17:55:50.588Z,18.38
2023-05-20T17:58:22.305Z,18.51
2023-05-20T18:00:50.274Z,18.41
2023-05-20T18:03:19.210Z,18.36
2023-05-20T18:05:48.589Z,18.38
2023-05-20T18:08:19.118Z,18.37
2023-05-20T18:10:47.093Z,18.42
2023-05-20T18:13:15.056Z,18.37
2023-05-20T18:15:47.090Z,18.38
2023-05-20T18:18:15.057Z,18.44
2023-05-20T18:20:43.108Z,18.39
2023-05-20T18:23:12.564Z,18.41
2023-05-20T18:25:42.410Z,18.24
2023-05-20T18:28:11.309Z,18.38
2023-05-20T18:30:39.458Z,18.24
2023-05-20T18:33:07.465Z,18.21
2023-05-20T18:35:35.542Z,18.20
2023-05-20T18:38:03.589Z,18.14
2023-05-20T18:40:33.679Z,18.02
2023-05-20T18:43:01.861Z,18.06
2023-05-20T18:45:29.937Z,18.06
2023-05-20T18:48:02.860Z,18.10
2023-05-20T18:50:31.060Z,18.09
2023-05-20T18:52:59.042Z,18.00
2023-05-20T18:55:27.540Z,17.91
2023-05-20T18:57:57.093Z,17.81
2023-05-20T19:00:25.313Z,17.81
2023-05-20T19:02:53.967Z,17.73
2023-05-20T19:05:22.118Z,17.66
2023-05-20T19:07:50.153Z,17.75
2023-05-20T19:10:18.575Z,17.72
2023-05-20T19:12:47.218Z,17.73
2023-05-20T19:15:19.152Z,17.70
2023-05-20T19:17:47.606Z,17.76
2023-05-20T19:20:15.870Z,17.63
2023-05-20T19:22:43.926Z,17.74
2023-05-20T19:25:12.741Z,17.63
2023-05-20T19:27:40.833Z,17.55
2023-05-20T19:30:11.050Z,17.51
2023-05-20T19:32:42.749Z,17.54
2023-05-20T19:35:11.845Z,17.55
2023-05-20T19:37:39.920Z,17.50
2023-05-20T19:40:09.518Z,17.48
2023-05-20T19:42:37.496Z,17.40
2023-05-20T19:45:06.827Z,17.41
2023-05-20T19:47:34.783Z,17.43
2023-05-20T19:50:04.502Z,17.40
2023-05-20T19:52:35.130Z,17.36
2023-05-20T19:55:03.328Z,17.31
2023-05-20T19:57:31.845Z,17.28
2023-05-20T20:00:00.068Z,17.25
2023-05-20T20:02:28.532Z,17.21
2023-05-20T20:04:56.788Z,16.93
2023-05-20T20:07:26.200Z,16.98
2023-05-20T20:09:55.501Z,16.84
2023-05-20T20:12:23.685Z,16.64
2023-05-20T20:14:52.307Z,16.76
2023-05-20T20:17:23.160Z,16.67
2023-05-20T20:19:53.347Z,16.51
2023-05-20T20:22:21.518Z,16.40
2023-05-20T20:24:51.568Z,16.33
2023-05-20T20:27:20.664Z,16.16
2023-05-20T20:29:48.612Z,16.21
2023-05-20T20:32:16.857Z,16.18
2023-05-20T20:34:46.101Z,16.09
2023-05-20T20:37:15.425Z,16.13
2023-05-20T20:39:46.851Z,16.09
2023-05-20T20:42:16.293Z,15.97
2023-05-20T20:44:48.298Z,16.12
2023-05-20T20:47:16.284Z,16.10
2023-05-20T20:49:44.251Z,16.11
2023-05-20T20:52:12.476Z,16.11
2023-05-20T20:54:42.913Z,16.06
2023-05-20T20:57:11.583Z,16.03
2023-05-20T20:59:48.024Z,16.04
2023-05-20T21:02:16.294Z,15.90
2023-05-20T21:04:44.298Z,15.85
2023-05-20T21:07:12.409Z,15.89
2023-05-20T21:09:40.410Z,15.67
2023-05-20T21:12:09.458Z,15.49
2023-05-20T21:14:37.629Z,15.36
2023-05-20T21:17:07.195Z,15.19
2023-05-20T21:19:36.014Z,14.97
2023-05-20T21:22:04.098Z,14.93
2023-05-20T21:24:32.086Z,14.93
2023-05-20T21:27:00.154Z,14.90
2023-05-20T21:29:28.089Z,14.83
2023-05-20T21:31:56.158Z,14.85
2023-05-20T21:34:25.502Z,14.80
2023-05-20T21:36:53.453Z,14.82
2023-05-20T21:39:21.518Z,14.80
2023-05-20T21:41:49.470Z,14.83
2023-05-20T21:44:17.451Z,14.82
2023-05-20T21:46:45.451Z,14.70
2023-05-20T21:49:13.575Z,14.65
2023-05-20T21:51:42.864Z,14.62
2023-05-20T21:54:10.885Z,14.61
2023-05-20T21:56:39.099Z,14.62
2023-05-20T21:59:07.028Z,14.62
2023-05-20T22:01:35.062Z,14.62
2023-05-20T22:04:04.963Z,14.55
2023-05-20T22:06:35.051Z,14.43
2023-05-20T22:09:05.379Z,14.32
2023-05-20T22:11:33.815Z,14.41
2023-05-20T22:14:01.874Z,14.44
2023-05-20T22:16:30.178Z,14.38
2023-05-20T22:18:58.540Z,14.44
2023-05-20T22:21:26.610Z,14.43
2023-05-20T22:23:55.432Z,14.40
2023-05-20T22:26:25.401Z,14.28
2023-05-20T22:28:53.317Z,14.19
2023-05-20T22:31:22.070Z,14.07
2023-05-20T22:33:50.268Z,14.02
2023-05-20T22:36:18.206Z,14.12
2023-05-20T22:38:46.473Z,14.14
2023-05-20T22:41:14.462Z,14.22
2023-05-20T22:43:43.762Z,14.27
2023-05-20T22:46:11.897Z,14.28
2023-05-20T22:48:39.864Z,14.32
2023-05-20T22:51:08.972Z,14.36
2023-05-20T22:53:36.999Z,14.27
2023-05-20T22:56:05.943Z,14.23
2023-05-20T22:58:39.529Z,14.22
2023-05-20T23:01:08.957Z,14.32
2023-05-20T23:03:37.277Z,14.43
2023-05-20T23:06:05.601Z,14.44
2023-05-20T23:08:33.520Z,14.43
2023-05-20T23:11:01.433Z,14.53
2023-05-20T23:13:29.414Z,14.65
2023-05-20T23:15:57.951Z,14.69
2023-05-20T23:18:27.390Z,14.63
2023-05-20T23:20:55.861Z,14.57
2023-05-20T23:23:30.306Z,14.55
2023-05-20T23:26:01.669Z,14.51
2023-05-20T23:28:29.791Z,14.48
2023-05-20T23:30:57.746Z,14.41
2023-05-20T23:33:27.266Z,14.46
2023-05-20T23:35:55.281Z,14.48
2023-05-20T23:38:23.497Z,14.49
2023-05-20T23:40:51.619Z,14.41
2023-05-20T23:43:19.661Z,14.41
2023-05-20T23:45:47.916Z,14.33
2023-05-20T23:48:17.959Z,14.30
2023-05-20T23:50:48.272Z,14.28
2023-05-20T23:53:17.118Z,14.40
2023-05-20T23:55:45.451Z,14.38
2023-05-20T23:58:13.441Z,14.28
